Terminal Aerodrome Forecast
Issued by NWS Portland, OR

Home | Current Version | Previous Version | Text Only | Print | Product List | Glossary On
Versions: 1 2 3 4 5 6 7 8 9 10 11 12 13 14 15 16 17 18 19 20 21 22
000
FTUS46 KPQR 312328
TAFEUG
TAF
KEUG 312328Z 0100/0124 21005KT P6SM VCSH SCT035 SCT070 BKN250
     FM011000 VRB03KT 4SM BR OVC015
     FM011200 00000KT 2SM BR OVC007
     FM011400 00000KT 1/2SM FG OVC003
     FM011900 28005KT P6SM BKN250=

USA.gov is the U.S. government's official web portal to all federal, state and local government web resources and services.